createdAt,value
2023-04-20T00:00:00.611Z,2.83
2023-04-20T00:02:27.694Z,2.23
2023-04-20T00:05:00.615Z,3.57
2023-04-20T00:07:27.628Z,3.47
2023-04-20T00:10:00.571Z,4.03
2023-04-20T00:12:33.603Z,2.37
2023-04-20T00:15:06.814Z,3.10
2023-04-20T00:17:33.827Z,3.87
2023-04-20T00:20:07.566Z,2.80
2023-04-20T00:22:34.311Z,2.27
2023-04-20T00:25:07.601Z,2.80
2023-04-20T00:27:34.430Z,4.80
2023-04-20T00:30:07.588Z,4.67
2023-04-20T00:32:40.680Z,3.27
2023-04-20T00:35:14.634Z,5.10
2023-04-20T00:37:41.800Z,3.20
2023-04-20T00:40:15.583Z,3.23
2023-04-20T00:42:42.635Z,3.53
2023-04-20T00:45:16.603Z,3.57
2023-04-20T00:47:49.791Z,3.17
2023-04-20T00:50:17.373Z,3.17
2023-04-20T00:52:51.562Z,3.03
2023-04-20T00:55:19.852Z,3.40
2023-04-20T00:57:59.742Z,3.83
2023-04-20T01:00:33.158Z,3.10
2023-04-20T01:03:06.739Z,3.57
2023-04-20T01:05:34.299Z,3.87
2023-04-20T01:08:07.634Z,3.70
2023-04-20T01:10:34.551Z,3.47
2023-04-20T01:13:01.321Z,6.30
2023-04-20T01:15:34.606Z,3.43
2023-04-20T01:18:01.510Z,4.33
2023-04-20T01:20:34.676Z,6.43
2023-04-20T01:23:01.682Z,4.23
2023-04-20T01:25:34.558Z,3.33
2023-04-20T01:28:02.312Z,3.93
2023-04-20T01:30:36.631Z,5.67
2023-04-20T01:33:03.492Z,5.40
2023-04-20T01:35:30.553Z,5.50
2023-04-20T01:38:03.741Z,5.20
2023-04-20T01:40:36.719Z,7.13
2023-04-20T01:43:03.465Z,4.73
2023-04-20T01:45:36.650Z,4.33
2023-04-20T01:48:03.535Z,4.63
2023-04-20T01:50:36.650Z,4.23
2023-04-20T01:53:03.635Z,4.20
2023-04-20T01:55:36.678Z,3.77
2023-04-20T01:58:10.076Z,3.67
2023-04-20T02:00:43.672Z,4.43
2023-04-20T02:03:11.350Z,3.50
2023-04-20T02:05:44.714Z,4.00
2023-04-20T02:08:11.796Z,3.60
2023-04-20T02:10:44.619Z,3.50
2023-04-20T02:13:18.626Z,3.60
2023-04-20T02:15:45.434Z,9.33
2023-04-20T02:18:18.654Z,3.40
2023-04-20T02:20:46.381Z,4.10
2023-04-20T02:23:19.620Z,3.90
2023-04-20T02:25:52.617Z,3.50
2023-04-20T02:28:19.373Z,5.13
2023-04-20T02:30:52.759Z,4.37
2023-04-20T02:33:21.357Z,3.70
2023-04-20T02:35:54.597Z,3.97
2023-04-20T02:38:21.588Z,2.90
2023-04-20T02:40:54.592Z,3.57
2023-04-20T02:43:21.348Z,6.28
2023-04-20T02:45:54.631Z,4.50
2023-04-20T02:48:21.354Z,3.40
2023-04-20T02:50:48.190Z,3.60
2023-04-20T02:53:21.648Z,4.55
2023-04-20T02:55:48.422Z,3.95
2023-04-20T02:58:21.760Z,4.60
2023-04-20T03:00:54.805Z,4.35
2023-04-20T03:03:28.822Z,4.53
2023-04-20T03:05:56.863Z,3.47
2023-04-20T03:08:30.614Z,3.65
2023-04-20T03:10:57.304Z,4.07
2023-04-20T03:13:30.667Z,3.30
2023-04-20T03:15:57.415Z,4.50
2023-04-20T03:18:30.642Z,4.00
2023-04-20T03:20:57.470Z,4.57
2023-04-20T03:23:30.670Z,4.70
2023-04-20T03:25:57.817Z,6.10
2023-04-20T03:28:30.622Z,4.03
2023-04-20T03:31:03.689Z,4.47
2023-04-20T03:33:30.594Z,3.40
2023-04-20T03:36:03.735Z,4.22
2023-04-20T03:38:37.694Z,4.20
2023-04-20T03:41:11.876Z,6.22
2023-04-20T03:43:44.628Z,5.40
2023-04-20T03:46:17.674Z,4.78
2023-04-20T03:48:50.677Z,3.63
2023-04-20T03:51:17.575Z,3.33
2023-04-20T03:53:50.665Z,4.78
2023-04-20T03:56:17.516Z,5.55
2023-04-20T03:59:04.665Z,4.00
2023-04-20T04:01:32.469Z,4.82
2023-04-20T04:04:05.933Z,4.47
2023-04-20T04:06:33.257Z,4.32
2023-04-20T04:09:06.714Z,6.10
2023-04-20T04:11:33.525Z,3.78
2023-04-20T04:14:06.719Z,4.05
2023-04-20T04:16:39.661Z,5.20
2023-04-20T04:19:12.698Z,3.77
2023-04-20T04:21:39.526Z,5.28
2023-04-20T04:24:13.671Z,4.30
2023-04-20T04:26:46.841Z,5.57
2023-04-20T04:29:20.722Z,6.57
2023-04-20T04:31:54.060Z,5.70
2023-04-20T04:34:27.718Z,5.90
2023-04-20T04:37:00.691Z,4.43
2023-04-20T04:39:28.661Z,4.45
2023-04-20T04:42:04.826Z,3.40
2023-04-20T04:44:31.997Z,3.60
2023-04-20T04:47:20.816Z,3.47
2023-04-20T04:49:54.970Z,5.23
2023-04-20T04:52:29.792Z,3.50
2023-04-20T04:54:56.529Z,3.23
2023-04-20T04:57:29.696Z,3.57
2023-04-20T05:00:07.205Z,5.55
2023-04-20T05:02:40.960Z,4.57
2023-04-20T05:05:15.836Z,4.82
2023-04-20T05:07:48.721Z,3.50
2023-04-20T05:10:15.732Z,8.50
2023-04-20T05:12:48.732Z,5.13
2023-04-20T05:15:15.614Z,4.57
2023-04-20T05:17:42.380Z,5.20
2023-04-20T05:20:17.767Z,4.10
2023-04-20T05:22:44.822Z,4.20
2023-04-20T05:25:18.679Z,3.33
2023-04-20T05:27:51.709Z,4.85
2023-04-20T05:30:21.703Z,3.77
2023-04-20T05:32:51.903Z,3.90
2023-04-20T05:35:26.783Z,4.93
2023-04-20T05:37:53.449Z,4.85
2023-04-20T05:40:26.716Z,5.10
2023-04-20T05:42:53.784Z,5.40
2023-04-20T05:45:26.826Z,4.78
2023-04-20T05:47:57.575Z,4.47
2023-04-20T05:50:31.756Z,4.82
2023-04-20T05:52:58.805Z,5.60
2023-04-20T05:55:32.764Z,5.07
2023-04-20T05:58:06.258Z,6.57
2023-04-20T06:00:45.814Z,5.82
2023-04-20T06:03:13.293Z,6.78
2023-04-20T06:05:46.766Z,6.80
2023-04-20T06:08:13.638Z,4.50
2023-04-20T06:10:46.840Z,4.75
2023-04-20T06:13:13.656Z,4.47
2023-04-20T06:15:40.564Z,4.50
2023-04-20T06:18:13.916Z,6.97
2023-04-20T06:20:41.040Z,4.65
2023-04-20T06:23:13.761Z,6.07
2023-04-20T06:25:40.860Z,5.45
2023-04-20T06:28:07.977Z,6.90
2023-04-20T06:30:41.869Z,5.15
2023-04-20T06:33:14.760Z,6.60
2023-04-20T06:35:41.800Z,5.60
2023-04-20T06:38:15.804Z,5.15
2023-04-20T06:40:49.805Z,4.85
2023-04-20T06:43:22.758Z,7.05
2023-04-20T06:45:55.919Z,4.20
2023-04-20T06:48:30.909Z,5.97
2023-04-20T06:51:04.807Z,4.90
2023-04-20T06:53:31.587Z,5.43
2023-04-20T06:56:04.804Z,4.50
2023-04-20T06:58:37.848Z,5.60
2023-04-20T07:01:17.885Z,4.60
2023-04-20T07:03:53.962Z,4.75
2023-04-20T07:06:27.761Z,6.60
2023-04-20T07:08:54.525Z,5.43
2023-04-20T07:11:21.255Z,7.38
2023-04-20T07:13:54.755Z,6.78
2023-04-20T07:16:21.549Z,5.03
2023-04-20T07:18:54.773Z,6.45
2023-04-20T07:21:27.770Z,6.82
2023-04-20T07:24:02.825Z,5.30
2023-04-20T07:26:29.539Z,7.05
2023-04-20T07:29:02.850Z,5.88
2023-04-20T07:31:29.782Z,5.60
2023-04-20T07:34:02.750Z,4.90
2023-04-20T07:36:30.498Z,6.97
2023-04-20T07:39:03.810Z,7.45
2023-04-20T07:41:30.478Z,7.65
2023-04-20T07:44:03.864Z,6.97
2023-04-20T07:46:37.789Z,7.65
2023-04-20T07:49:10.882Z,5.60
2023-04-20T07:51:37.647Z,5.88
2023-04-20T07:54:11.928Z,5.95
2023-04-20T07:56:44.812Z,5.22
2023-04-20T07:59:18.134Z,4.63
2023-04-20T08:01:58.911Z,5.38
2023-04-20T08:04:26.062Z,4.65
2023-04-20T08:06:59.757Z,4.35
2023-04-20T08:09:26.700Z,8.25
2023-04-20T08:11:59.784Z,4.80
2023-04-20T08:14:26.629Z,5.80
2023-04-20T08:16:59.826Z,4.97
2023-04-20T08:19:33.779Z,6.35
2023-04-20T08:22:06.913Z,5.70
2023-04-20T08:24:33.617Z,5.47
2023-04-20T08:27:00.543Z,5.05
2023-04-20T08:29:33.741Z,5.95
2023-04-20T08:32:00.823Z,7.00
2023-04-20T08:34:34.348Z,5.20
2023-04-20T08:37:01.866Z,6.25
2023-04-20T08:39:34.911Z,5.25
2023-04-20T08:42:02.495Z,4.40
2023-04-20T08:44:35.761Z,4.85
2023-04-20T08:47:03.459Z,5.20
2023-04-20T08:49:37.832Z,6.03
2023-04-20T08:52:04.580Z,3.83
2023-04-20T08:54:42.809Z,4.75
2023-04-20T08:57:16.549Z,3.97
2023-04-20T08:59:56.880Z,5.93
2023-04-20T09:02:24.020Z,4.03
2023-04-20T09:05:13.926Z,6.38
2023-04-20T09:07:47.831Z,5.03
2023-04-20T09:10:20.887Z,3.85
2023-04-20T09:12:47.598Z,5.68
2023-04-20T09:15:34.851Z,4.60
2023-04-20T09:18:19.821Z,4.68
2023-04-20T09:20:52.803Z,5.72
2023-04-20T09:23:23.897Z,4.55
2023-04-20T09:25:59.870Z,5.18
2023-04-20T09:28:36.405Z,5.13
2023-04-20T09:31:09.825Z,4.32
2023-04-20T09:33:44.948Z,4.50
2023-04-20T09:36:12.074Z,4.55
2023-04-20T09:38:39.226Z,4.82
2023-04-20T09:41:13.866Z,5.97
2023-04-20T09:43:48.911Z,5.07
2023-04-20T09:46:23.033Z,5.05
2023-04-20T09:48:56.875Z,4.55
2023-04-20T09:51:28.024Z,4.47
2023-04-20T09:54:02.896Z,5.20
2023-04-20T09:56:30.898Z,4.15
2023-04-20T09:59:12.849Z,4.65
2023-04-20T10:01:39.659Z,5.07
2023-04-20T10:04:21.114Z,4.15
2023-04-20T10:07:09.868Z,4.75
2023-04-20T10:09:38.077Z,5.38
2023-04-20T10:12:16.851Z,6.90
2023-04-20T10:14:51.824Z,4.88
2023-04-20T10:17:30.185Z,4.93
2023-04-20T10:20:03.825Z,5.03
2023-04-20T10:22:35.584Z,4.97
2023-04-20T10:25:20.865Z,4.90
2023-04-20T10:28:01.834Z,5.03
2023-04-20T10:30:37.865Z,4.80
2023-04-20T10:33:13.965Z,5.18
2023-04-20T10:35:52.802Z,5.05
2023-04-20T10:38:38.820Z,6.63
2023-04-20T10:41:10.525Z,5.35
2023-04-20T10:43:49.922Z,4.78
2023-04-20T10:46:24.479Z,4.65
2023-04-20T10:49:01.925Z,5.40
2023-04-20T10:51:28.925Z,5.47
2023-04-20T10:54:12.907Z,7.38
2023-04-20T10:56:48.223Z,4.57
2023-04-20T10:59:25.840Z,4.65
2023-04-20T11:01:52.728Z,6.78
2023-04-20T11:04:37.952Z,5.00
2023-04-20T11:07:07.463Z,4.50
2023-04-20T11:09:40.920Z,5.50
2023-04-20T11:12:08.645Z,4.53
2023-04-20T11:14:44.881Z,5.07
2023-04-20T11:17:18.058Z,5.05
2023-04-20T11:19:52.185Z,5.68
2023-04-20T11:22:30.223Z,4.70
2023-04-20T11:25:13.892Z,5.18
2023-04-20T11:27:43.376Z,4.20
2023-04-20T11:30:18.641Z,4.10
2023-04-20T11:33:01.082Z,4.07
2023-04-20T11:35:41.933Z,5.90
2023-04-20T11:38:15.960Z,5.07
2023-04-20T11:40:42.778Z,4.20
2023-04-20T11:43:15.893Z,3.92
2023-04-20T11:45:42.777Z,4.00
2023-04-20T11:48:15.961Z,4.05
2023-04-20T11:50:43.481Z,4.88
2023-04-20T11:53:22.026Z,4.90
2023-04-20T11:55:49.517Z,5.15
2023-04-20T11:58:16.358Z,6.05
2023-04-20T12:00:50.010Z,4.90
2023-04-20T12:03:23.069Z,4.60
2023-04-20T12:05:56.916Z,5.25
2023-04-20T12:08:24.975Z,7.75
2023-04-20T12:10:58.808Z,5.75
2023-04-20T12:13:25.877Z,6.85
2023-04-20T12:15:58.986Z,5.57
2023-04-20T12:18:25.957Z,6.13
2023-04-20T12:20:58.902Z,5.75
2023-04-20T12:23:25.874Z,6.47
2023-04-20T12:25:58.881Z,5.22
2023-04-20T12:28:31.877Z,6.22
2023-04-20T12:30:58.987Z,5.68
2023-04-20T12:33:31.978Z,7.63
2023-04-20T12:36:04.901Z,5.35
2023-04-20T12:38:38.046Z,5.55
2023-04-20T12:41:05.089Z,5.10
2023-04-20T12:43:38.003Z,7.10
2023-04-20T12:46:11.973Z,5.90
2023-04-20T12:48:44.997Z,5.38
2023-04-20T12:51:12.724Z,5.28
2023-04-20T12:53:46.020Z,5.72
2023-04-20T12:56:12.878Z,5.90
2023-04-20T12:58:59.966Z,5.60
2023-04-20T13:01:27.167Z,5.53
2023-04-20T13:03:54.424Z,6.68
2023-04-20T13:06:27.983Z,5.93
2023-04-20T13:08:54.822Z,5.93
2023-04-20T13:11:29.047Z,6.40
2023-04-20T13:13:58.168Z,5.78
2023-04-20T13:16:32.114Z,5.78
2023-04-20T13:18:58.997Z,6.07
2023-04-20T13:21:33.037Z,6.15
2023-04-20T13:24:00.004Z,5.60
2023-04-20T13:26:32.955Z,5.65
2023-04-20T13:28:59.736Z,5.88
2023-04-20T13:31:33.112Z,5.85
2023-04-20T13:34:00.127Z,6.30
2023-04-20T13:36:34.955Z,8.30
2023-04-20T13:39:08.948Z,5.80
2023-04-20T13:41:35.994Z,5.50
2023-04-20T13:44:09.973Z,6.05
2023-04-20T13:46:43.005Z,6.03
2023-04-20T13:49:12.715Z,5.55
2023-04-20T13:51:47.971Z,5.60
2023-04-20T13:54:14.817Z,5.25
2023-04-20T13:56:48.001Z,5.32
2023-04-20T13:59:21.987Z,5.55
2023-04-20T14:01:55.551Z,7.30
2023-04-20T14:04:29.079Z,5.50
2023-04-20T14:06:55.978Z,6.03
2023-04-20T14:09:29.072Z,5.40
2023-04-20T14:12:04.004Z,5.43
2023-04-20T14:14:37.091Z,5.95
2023-04-20T14:17:04.052Z,5.88
2023-04-20T14:19:38.192Z,5.97
2023-04-20T14:22:12.059Z,5.53
2023-04-20T14:24:38.873Z,5.22
2023-04-20T14:27:11.985Z,6.78
2023-04-20T14:29:38.810Z,5.32
2023-04-20T14:32:12.006Z,5.75
2023-04-20T14:34:38.805Z,6.72
2023-04-20T14:37:12.077Z,6.22
2023-04-20T14:39:38.908Z,5.68
2023-04-20T14:42:12.991Z,6.57
2023-04-20T14:44:46.254Z,5.63
2023-04-20T14:47:20.129Z,5.72
2023-04-20T14:49:47.801Z,6.13
2023-04-20T14:52:21.038Z,7.05
2023-04-20T14:54:47.908Z,6.25
2023-04-20T14:57:21.007Z,6.90
2023-04-20T15:00:00.976Z,6.43
2023-04-20T15:02:28.014Z,5.07
2023-04-20T15:05:01.161Z,6.15
2023-04-20T15:07:28.762Z,5.47
2023-04-20T15:10:01.991Z,5.88
2023-04-20T15:12:28.838Z,5.55
2023-04-20T15:15:02.088Z,5.80
2023-04-20T15:17:28.929Z,7.88
2023-04-20T15:20:02.060Z,5.93
2023-04-20T15:22:35.337Z,6.28
2023-04-20T15:25:09.145Z,5.72
2023-04-20T15:27:39.268Z,5.95
2023-04-20T15:30:07.011Z,6.18
2023-04-20T15:32:41.037Z,6.00
2023-04-20T15:35:08.036Z,5.80
2023-04-20T15:37:41.073Z,5.85
2023-04-20T15:40:08.621Z,5.82
2023-04-20T15:42:42.028Z,6.03
2023-04-20T15:45:09.280Z,5.57
2023-04-20T15:47:43.104Z,5.60
2023-04-20T15:50:10.361Z,5.53
2023-04-20T21:06:20.203Z,13.18
2023-04-20T21:08:53.247Z,11.90
2023-04-20T21:11:20.203Z,12.10
2023-04-20T21:13:54.206Z,12.52
2023-04-20T21:16:21.162Z,13.82
2023-04-20T21:18:54.543Z,12.10
2023-04-20T21:21:21.483Z,13.30
2023-04-20T21:23:56.276Z,12.30
2023-04-20T21:26:29.212Z,13.82
2023-04-20T21:28:56.351Z,13.25
2023-04-20T21:31:30.638Z,13.85
2023-04-20T21:33:58.232Z,14.57
2023-04-20T21:36:32.348Z,14.73
2023-04-20T21:38:59.342Z,15.02
2023-04-20T21:41:36.212Z,16.38
2023-04-20T21:44:03.399Z,17.90
2023-04-20T21:46:37.479Z,17.15
2023-04-20T21:49:04.440Z,16.60
2023-04-20T21:51:39.232Z,15.57
2023-04-20T21:54:06.437Z,17.50
2023-04-20T21:56:39.418Z,18.75
2023-04-20T21:59:13.223Z,15.98
2023-04-20T22:01:40.503Z,16.73
2023-04-20T22:04:14.460Z,16.48
2023-04-20T22:06:48.257Z,15.10
2023-04-20T22:09:21.297Z,16.52
2023-04-20T22:11:50.217Z,17.02
2023-04-20T22:14:24.244Z,15.45
2023-04-20T22:16:52.576Z,17.60
2023-04-20T22:19:26.221Z,16.63
2023-04-20T22:21:53.369Z,15.73
2023-04-20T22:24:27.293Z,18.38
2023-04-20T22:27:01.232Z,15.88
2023-04-20T22:29:28.694Z,17.80
2023-04-20T22:32:02.269Z,17.27
2023-04-20T22:34:35.285Z,16.35
2023-04-20T22:37:02.308Z,15.32
2023-04-20T22:39:35.301Z,17.38
2023-04-20T22:42:02.542Z,17.77
2023-04-20T22:44:44.028Z,16.73
2023-04-20T22:47:17.313Z,15.95
2023-04-20T22:49:44.288Z,14.38
2023-04-20T22:52:17.395Z,15.85
2023-04-20T22:54:48.466Z,15.05
2023-04-20T22:57:22.213Z,16.40
2023-04-20T22:59:58.247Z,14.70
2023-04-20T23:02:31.461Z,14.80
2023-04-20T23:04:58.618Z,16.17
2023-04-20T23:07:39.347Z,17.40
2023-04-20T23:10:14.334Z,16.90
2023-04-20T23:12:41.249Z,14.70
2023-04-20T23:15:16.440Z,16.92
2023-04-20T23:17:43.262Z,19.70
2023-04-20T23:20:20.332Z,18.00
2023-04-20T23:22:47.381Z,15.77
2023-04-20T23:25:21.343Z,16.15
2023-04-20T23:27:48.472Z,15.82
2023-04-20T23:30:22.357Z,17.73
2023-04-20T23:32:56.678Z,15.13
2023-04-20T23:35:30.270Z,15.48
2023-04-20T23:38:05.518Z,15.93
2023-04-20T23:40:39.205Z,14.65
2023-04-20T23:43:12.404Z,15.90
2023-04-20T23:45:39.282Z,15.38
2023-04-20T23:48:13.297Z,19.23
2023-04-20T23:50:40.458Z,15.82
2023-04-20T23:53:14.463Z,15.15
2023-04-20T23:55:41.591Z,14.48
2023-04-20T23:58:15.298Z,15.27
